createdAt,value
2023-07-04T00:01:07.659Z,2.28
2023-07-04T00:03:35.524Z,2.42
2023-07-04T00:06:02.852Z,1.92
2023-07-04T00:08:35.269Z,2.22
2023-07-04T00:11:04.589Z,2.40
2023-07-04T00:13:33.321Z,2.25
2023-07-04T00:16:00.993Z,2.20
2023-07-04T00:18:29.392Z,1.95
2023-07-04T00:21:04.005Z,2.70
2023-07-04T00:23:37.848Z,2.30
2023-07-04T00:26:10.236Z,2.67
2023-07-04T00:28:40.321Z,1.90
2023-07-04T00:31:08.893Z,2.00
2023-07-04T00:33:36.249Z,1.90
2023-07-04T00:36:10.613Z,2.10
2023-07-04T00:38:39.334Z,2.10
2023-07-04T00:41:21.914Z,1.90
2023-07-04T00:43:57.516Z,2.17
2023-07-04T00:46:37.732Z,2.35
2023-07-04T00:49:08.114Z,2.25
2023-07-04T00:51:36.264Z,2.10
2023-07-04T00:54:05.378Z,2.65
2023-07-04T00:56:32.765Z,2.43
2023-07-04T00:59:00.477Z,2.50
2023-07-04T01:01:28.569Z,2.00
2023-07-04T01:03:59.368Z,2.43
2023-07-04T01:06:36.782Z,2.50
2023-07-04T01:09:06.714Z,2.47
2023-07-04T01:11:43.821Z,2.30
2023-07-04T01:14:20.975Z,2.75
2023-07-04T01:16:48.781Z,2.50
2023-07-04T01:19:34.463Z,2.40
2023-07-04T01:22:22.973Z,2.17
2023-07-04T01:24:59.937Z,1.95
2023-07-04T01:27:29.645Z,2.53
2023-07-04T01:30:11.296Z,2.10
2023-07-04T01:32:40.938Z,2.00
2023-07-04T01:35:12.233Z,2.10
2023-07-04T01:37:39.397Z,1.90
2023-07-04T01:40:08.844Z,1.50
2023-07-04T01:42:37.549Z,1.60
2023-07-04T01:45:07.043Z,2.13
2023-07-04T01:47:35.597Z,1.63
2023-07-04T01:50:03.479Z,1.40
2023-07-04T01:52:31.506Z,1.50
2023-07-04T01:54:59.165Z,1.45
2023-07-04T01:57:26.483Z,1.40
2023-07-04T01:59:53.368Z,1.48
2023-07-04T02:02:21.114Z,1.55
2023-07-04T02:04:48.447Z,1.80
2023-07-04T02:07:15.252Z,1.33
2023-07-04T02:09:44.404Z,1.35
2023-07-04T02:12:11.573Z,1.52
2023-07-04T02:14:38.474Z,1.40
2023-07-04T02:17:05.712Z,1.55
2023-07-04T02:19:32.643Z,1.50
2023-07-04T02:21:59.539Z,1.48
2023-07-04T02:24:26.750Z,1.67
2023-07-04T02:26:54.731Z,1.52
2023-07-04T02:29:21.677Z,1.70
2023-07-04T02:31:48.641Z,1.60
2023-07-04T02:34:15.600Z,1.80
2023-07-04T02:36:43.201Z,1.60
2023-07-04T02:39:10.272Z,2.15
2023-07-04T02:41:37.244Z,1.77
2023-07-04T02:44:04.962Z,1.88
2023-07-04T02:46:32.086Z,1.90
2023-07-04T02:49:05.963Z,2.00
2023-07-04T02:51:34.235Z,1.95
2023-07-04T02:54:01.314Z,2.50
2023-07-04T02:56:30.944Z,2.22
2023-07-04T02:58:59.362Z,2.20
2023-07-04T03:01:26.629Z,2.40
2023-07-04T03:03:54.633Z,2.10
2023-07-04T03:06:22.345Z,2.22
2023-07-04T03:08:49.442Z,2.17
2023-07-04T03:11:18.645Z,2.28
2023-07-04T03:13:45.785Z,2.30
2023-07-04T03:16:12.795Z,2.20
2023-07-04T03:18:42.831Z,2.17
2023-07-04T03:21:10.188Z,2.42
2023-07-04T03:23:37.085Z,2.50
2023-07-04T03:26:04.147Z,2.53
2023-07-04T03:28:31.165Z,2.50
2023-07-04T03:30:59.595Z,2.28
2023-07-04T03:33:27.197Z,2.20
2023-07-04T03:35:59.606Z,2.20
2023-07-04T03:38:29.118Z,2.13
2023-07-04T03:40:56.722Z,2.33
2023-07-04T03:43:25.046Z,2.33
2023-07-04T03:45:52.516Z,2.40
2023-07-04T03:48:22.073Z,2.55
2023-07-04T03:50:49.141Z,2.42
2023-07-04T03:53:16.049Z,2.13
2023-07-04T03:55:42.958Z,1.87
2023-07-04T03:58:09.825Z,2.33
2023-07-04T04:00:36.959Z,2.53
2023-07-04T04:03:03.986Z,2.60
2023-07-04T04:05:31.192Z,2.65
2023-07-04T04:07:58.686Z,2.42
2023-07-04T04:10:25.634Z,2.40
2023-07-04T04:12:52.649Z,2.20
2023-07-04T04:15:19.593Z,2.20
2023-07-04T04:17:46.520Z,2.30
2023-07-04T04:20:14.046Z,2.65
2023-07-04T04:22:46.215Z,2.30
2023-07-04T04:25:14.699Z,2.50
2023-07-04T04:27:43.733Z,2.10
2023-07-04T04:30:12.020Z,2.15
2023-07-04T04:32:39.996Z,2.13
2023-07-04T04:35:09.542Z,2.00
2023-07-04T04:37:36.868Z,2.60
2023-07-04T04:40:07.960Z,2.33
2023-07-04T04:42:36.609Z,1.95
2023-07-04T04:45:05.018Z,2.22
2023-07-04T04:47:34.748Z,2.30
2023-07-04T04:50:02.933Z,2.40
2023-07-04T04:52:32.371Z,2.42
2023-07-04T04:55:02.499Z,3.20
2023-07-04T04:57:30.738Z,2.60
2023-07-04T05:00:02.240Z,2.65
2023-07-04T05:02:32.723Z,2.53
2023-07-04T05:05:00.622Z,2.38
2023-07-04T05:07:28.842Z,2.10
2023-07-04T05:09:56.696Z,1.80
2023-07-04T05:12:23.848Z,2.38
2023-07-04T05:14:51.032Z,2.20
2023-07-04T05:17:18.313Z,2.10
2023-07-04T05:19:49.794Z,1.90
2023-07-04T05:22:20.673Z,2.22
2023-07-04T05:24:47.740Z,1.80
2023-07-04T05:27:15.093Z,2.25
2023-07-04T05:29:42.005Z,2.10
2023-07-04T05:32:09.401Z,2.38
2023-07-04T05:34:36.504Z,2.65
2023-07-04T05:37:04.769Z,2.70
2023-07-04T05:39:31.849Z,2.40
2023-07-04T05:41:58.843Z,2.50
2023-07-04T05:44:25.949Z,2.80
2023-07-04T05:46:56.150Z,3.07
2023-07-04T05:49:23.000Z,3.15
2023-07-04T05:51:50.051Z,2.75
2023-07-04T05:54:17.036Z,2.78
2023-07-04T05:56:44.150Z,2.78
2023-07-04T05:59:11.321Z,3.00
2023-07-04T06:01:43.818Z,2.83
2023-07-04T06:04:12.890Z,2.63
2023-07-04T06:06:52.527Z,2.30
2023-07-04T06:09:20.325Z,2.50
2023-07-04T06:11:49.666Z,2.60
2023-07-04T06:14:23.663Z,2.85
2023-07-04T06:16:50.846Z,2.53
2023-07-04T06:19:18.808Z,2.30
2023-07-04T06:21:45.763Z,3.13
2023-07-04T06:24:15.358Z,2.38
2023-07-04T06:26:42.216Z,2.83
2023-07-04T06:29:09.227Z,2.10
2023-07-04T06:31:36.126Z,1.90
2023-07-04T06:34:03.129Z,2.35
2023-07-04T06:36:30.642Z,2.50
2023-07-04T06:39:02.047Z,2.50
2023-07-04T06:41:29.064Z,2.78
2023-07-04T06:43:55.998Z,2.72
2023-07-04T06:46:23.293Z,2.55
2023-07-04T06:48:51.903Z,2.70
2023-07-04T06:51:20.149Z,2.50
2023-07-04T06:53:47.333Z,2.78
2023-07-04T06:56:15.483Z,2.85
2023-07-04T06:58:46.491Z,3.60
2023-07-04T07:01:13.779Z,2.97
2023-07-04T07:03:40.776Z,2.78
2023-07-04T07:06:10.331Z,2.90
2023-07-04T07:08:38.621Z,2.85
2023-07-04T07:11:08.355Z,2.55
2023-07-04T07:13:36.663Z,3.13
2023-07-04T07:16:11.557Z,3.10
2023-07-04T07:18:40.266Z,2.70
2023-07-04T07:21:10.041Z,2.58
2023-07-04T07:23:38.361Z,2.50
2023-07-04T07:26:07.680Z,2.80
2023-07-04T07:28:40.591Z,2.53
2023-07-04T07:31:19.973Z,2.30
2023-07-04T07:33:49.705Z,2.50
2023-07-04T07:36:38.367Z,2.33
2023-07-04T07:39:08.229Z,2.10
2023-07-04T07:41:38.034Z,2.17
2023-07-04T07:44:07.062Z,2.50
2023-07-04T07:46:34.637Z,2.10
2023-07-04T07:49:02.112Z,2.13
2023-07-04T07:51:29.326Z,2.30
2023-07-04T07:53:57.708Z,2.35
2023-07-04T07:56:26.900Z,2.15
2023-07-04T07:58:53.890Z,2.10
2023-07-04T08:01:24.545Z,2.08
2023-07-04T08:03:52.208Z,2.30
2023-07-04T08:06:25.221Z,2.15
2023-07-04T08:08:53.736Z,2.17
2023-07-04T08:11:21.473Z,1.90
2023-07-04T08:13:50.390Z,2.25
2023-07-04T08:16:29.409Z,2.33
2023-07-04T08:18:59.785Z,2.25
2023-07-04T08:21:29.448Z,2.40
2023-07-04T08:23:56.641Z,2.10
2023-07-04T08:26:26.419Z,2.03
2023-07-04T08:28:55.198Z,2.30
2023-07-04T08:31:22.695Z,2.33
2023-07-04T08:33:50.231Z,2.20
2023-07-04T08:36:18.643Z,2.00
2023-07-04T08:38:49.046Z,2.57
2023-07-04T08:41:42.592Z,2.10
2023-07-04T08:44:19.697Z,2.17
2023-07-04T08:46:50.794Z,2.30
2023-07-04T08:49:42.783Z,2.50
2023-07-04T08:52:22.695Z,1.98
2023-07-04T08:54:50.200Z,2.38
2023-07-04T08:57:40.238Z,2.33
2023-07-04T09:00:10.757Z,2.15
2023-07-04T09:02:54.000Z,2.13
2023-07-04T09:05:35.949Z,2.80
2023-07-04T09:08:17.974Z,2.53
2023-07-04T09:10:54.074Z,2.20
2023-07-04T09:13:32.303Z,2.08
2023-07-04T09:16:05.875Z,2.13
2023-07-04T09:18:41.788Z,2.22
2023-07-04T09:21:16.808Z,2.25
2023-07-04T09:23:45.826Z,2.37
2023-07-04T09:26:18.711Z,2.30
2023-07-04T09:28:48.206Z,1.85
2023-07-04T09:31:38.216Z,1.88
2023-07-04T09:34:11.340Z,2.30
2023-07-04T09:36:40.675Z,2.03
2023-07-04T09:39:10.287Z,1.75
2023-07-04T09:41:55.405Z,2.13
2023-07-04T09:44:38.148Z,1.88
2023-07-04T09:47:06.600Z,2.08
2023-07-04T09:49:37.812Z,1.90
2023-07-04T09:52:20.092Z,2.00
2023-07-04T09:55:41.129Z,1.90
2023-07-04T09:58:25.185Z,1.97
2023-07-04T10:01:12.534Z,1.90
2023-07-04T10:03:40.656Z,2.03
2023-07-04T10:06:10.247Z,2.00
2023-07-04T10:08:53.157Z,1.95
2023-07-04T10:11:30.798Z,1.80
2023-07-04T10:14:12.603Z,2.03
2023-07-04T10:16:46.966Z,2.03
2023-07-04T10:19:17.161Z,1.77
2023-07-04T10:21:51.991Z,2.03
2023-07-04T10:24:23.478Z,2.22
2023-07-04T10:26:55.940Z,2.20
2023-07-04T10:29:38.146Z,1.90
2023-07-04T10:32:10.174Z,1.70
2023-07-04T10:34:38.532Z,1.80
2023-07-04T10:37:07.284Z,2.13
2023-07-04T10:39:39.077Z,2.20
2023-07-04T10:42:22.021Z,1.60
2023-07-04T10:44:54.494Z,1.80
2023-07-04T10:47:29.140Z,1.70
2023-07-04T10:50:01.124Z,1.52
2023-07-04T10:52:33.752Z,1.50
2023-07-04T10:55:02.159Z,1.70
2023-07-04T10:57:48.616Z,1.77
2023-07-04T11:00:25.949Z,1.67
2023-07-04T11:02:58.429Z,1.60
2023-07-04T11:05:47.797Z,1.67
2023-07-04T11:08:20.842Z,1.50
2023-07-04T11:10:52.598Z,1.58
2023-07-04T11:13:22.540Z,1.77
2023-07-04T11:15:55.613Z,2.00
2023-07-04T11:18:27.315Z,1.60
2023-07-04T11:21:08.296Z,2.03
2023-07-04T11:23:55.705Z,1.80
2023-07-04T11:26:59.609Z,1.60
2023-07-04T11:29:26.825Z,1.40
2023-07-04T11:32:06.217Z,1.90
2023-07-04T11:34:48.426Z,1.77
2023-07-04T11:37:32.855Z,1.98
2023-07-04T11:40:06.031Z,1.60
2023-07-04T11:42:44.572Z,1.50
2023-07-04T11:45:17.126Z,1.90
2023-07-04T11:47:49.473Z,1.90
2023-07-04T11:50:30.380Z,1.80
2023-07-04T11:52:59.635Z,1.50
2023-07-04T11:55:31.513Z,1.80
2023-07-04T11:58:07.920Z,1.70
2023-07-04T12:00:40.507Z,1.98
2023-07-04T12:03:20.543Z,1.48
2023-07-04T12:05:56.699Z,1.45
2023-07-04T12:08:29.832Z,1.50
2023-07-04T12:11:00.901Z,1.85
2023-07-04T12:13:30.837Z,1.85
2023-07-04T12:15:59.179Z,1.52
2023-07-04T12:18:28.938Z,2.40
2023-07-04T12:20:58.199Z,1.70
2023-07-04T12:23:25.705Z,1.30
2023-07-04T12:25:55.664Z,1.77
2023-07-04T12:28:27.997Z,1.27
2023-07-04T12:31:41.350Z,1.97
2023-07-04T12:33:49.187Z,2.00
2023-07-04T12:36:18.266Z,1.60
2023-07-04T12:38:51.908Z,1.42
2023-07-04T12:41:21.895Z,1.50
2023-07-04T12:51:42.965Z,1.30
2023-07-04T12:54:12.130Z,1.23
2023-07-04T12:56:44.032Z,1.70
2023-07-04T12:59:31.445Z,1.42
2023-07-04T13:01:58.883Z,1.58
2023-07-04T13:04:26.094Z,1.67
2023-07-04T13:06:53.217Z,1.50
2023-07-04T13:09:20.702Z,1.40
2023-07-04T13:11:48.293Z,1.33
2023-07-04T13:14:24.806Z,1.63
2023-07-04T13:16:52.029Z,1.30
2023-07-04T13:19:22.451Z,1.42
2023-07-04T13:21:50.515Z,1.47
2023-07-04T13:27:24.588Z,1.40
2023-07-04T13:35:35.624Z,1.33
2023-07-04T13:40:34.031Z,1.50
2023-07-04T13:45:44.290Z,1.30
2023-07-04T13:48:12.131Z,1.58
2023-07-04T13:50:39.151Z,2.00
2023-07-04T13:53:15.096Z,1.88
2023-07-04T13:55:43.717Z,1.27
2023-07-04T13:58:11.128Z,1.40
2023-07-04T14:03:16.026Z,2.17
2023-07-04T14:05:59.184Z,1.67
2023-07-04T14:08:28.034Z,1.50
2023-07-04T14:11:10.816Z,1.30
2023-07-04T14:13:38.416Z,1.60
2023-07-04T14:21:11.262Z,1.52
2023-07-04T14:23:39.040Z,1.70
2023-07-04T14:26:12.320Z,1.70
2023-07-04T14:28:39.313Z,1.52
2023-07-04T14:31:06.786Z,1.40
2023-07-04T14:33:33.976Z,1.40
2023-07-04T14:36:05.052Z,1.30
2023-07-04T14:38:32.061Z,1.52
2023-07-04T14:43:33.424Z,1.42
2023-07-04T14:46:02.540Z,1.48
2023-07-04T14:48:29.862Z,1.65
2023-07-04T14:51:15.143Z,1.40
2023-07-04T14:53:43.794Z,1.48
2023-07-04T14:56:14.469Z,1.45
2023-07-04T14:58:41.766Z,2.45
2023-07-04T15:01:13.914Z,1.75
2023-07-04T15:03:41.077Z,1.50
2023-07-04T15:06:08.909Z,1.58
2023-07-04T15:08:36.896Z,1.75
2023-07-04T15:11:05.193Z,1.55
2023-07-04T15:13:33.253Z,1.65
2023-07-04T15:16:05.910Z,1.60
2023-07-04T15:18:37.979Z,1.60
2023-07-04T15:21:07.052Z,1.67
2023-07-04T15:23:34.699Z,1.90
2023-07-04T15:26:15.561Z,2.30
2023-07-04T15:28:49.182Z,2.58
2023-07-04T15:31:16.960Z,2.10
2023-07-04T15:33:44.776Z,2.30
2023-07-04T15:36:12.137Z,2.10
2023-07-04T15:38:39.624Z,2.10
2023-07-04T15:41:10.244Z,2.20
2023-07-04T15:43:38.260Z,2.17
2023-07-04T15:46:08.696Z,2.20
2023-07-04T15:48:36.465Z,2.42
2023-07-04T15:51:05.419Z,2.10
2023-07-04T15:53:32.901Z,1.97
2023-07-04T15:56:23.504Z,2.08
2023-07-04T15:58:50.685Z,2.93
2023-07-04T16:01:18.116Z,2.28
2023-07-04T16:03:45.282Z,2.33
2023-07-04T16:06:12.574Z,1.98
2023-07-04T16:08:41.286Z,2.00
2023-07-04T16:11:13.990Z,2.10
2023-07-04T16:13:42.492Z,2.03
2023-07-04T16:16:10.941Z,2.40
2023-07-04T16:18:38.320Z,2.22
2023-07-04T16:21:05.645Z,2.33
2023-07-04T16:23:32.745Z,2.00
2023-07-04T16:26:00.664Z,2.25
2023-07-04T16:28:27.980Z,2.20
2023-07-04T16:31:02.092Z,1.95
2023-07-04T16:33:30.842Z,2.35
2023-07-04T16:35:57.706Z,2.85
2023-07-04T16:38:26.405Z,2.35
2023-07-04T16:40:54.747Z,2.45
2023-07-04T16:43:22.573Z,2.45
2023-07-04T16:45:49.833Z,2.30
2023-07-04T16:48:17.245Z,2.80
2023-07-04T16:50:44.284Z,2.40
2023-07-04T16:53:11.338Z,2.17
2023-07-04T16:55:38.807Z,2.13
2023-07-04T16:58:06.086Z,2.45
2023-07-04T17:00:33.557Z,2.63
2023-07-04T17:03:00.911Z,2.63
2023-07-04T17:05:30.748Z,2.20
2023-07-04T17:07:57.636Z,2.17
2023-07-04T17:10:24.598Z,2.25
2023-07-04T17:12:51.786Z,2.50
2023-07-04T17:15:18.977Z,2.38
2023-07-04T17:17:46.546Z,2.10
2023-07-04T17:20:13.686Z,2.50
2023-07-04T17:22:40.665Z,2.30
2023-07-04T17:25:14.544Z,2.75
2023-07-04T17:27:42.065Z,3.00
2023-07-04T17:30:09.756Z,2.80
2023-07-04T17:32:37.171Z,2.38
2023-07-04T17:35:06.063Z,2.53
2023-07-04T17:37:34.097Z,2.30
2023-07-04T17:40:01.226Z,2.22
2023-07-04T17:42:30.396Z,2.67
2023-07-04T17:44:58.579Z,2.40
2023-07-04T17:47:27.926Z,2.60
2023-07-04T17:49:55.285Z,2.63
2023-07-04T17:52:22.297Z,2.35
2023-07-04T17:54:49.205Z,2.38
2023-07-04T17:57:26.886Z,2.60
2023-07-04T17:59:55.097Z,2.20
2023-07-04T18:02:22.340Z,2.70
2023-07-04T18:04:53.360Z,2.33
2023-07-04T18:07:20.497Z,2.67
2023-07-04T18:09:49.360Z,2.30
2023-07-04T18:12:17.715Z,2.45
2023-07-04T18:14:44.580Z,2.40
2023-07-04T18:17:11.564Z,2.40
2023-07-04T18:19:39.980Z,2.20
2023-07-04T18:22:07.335Z,2.55
2023-07-04T18:24:35.874Z,2.53
2023-07-04T18:27:03.090Z,3.00
2023-07-04T18:29:30.127Z,2.92
2023-07-04T18:31:59.607Z,3.00
2023-07-04T18:34:27.118Z,2.90
2023-07-04T18:36:55.882Z,3.17
2023-07-04T18:39:22.951Z,2.80
2023-07-04T18:41:49.968Z,2.85
2023-07-04T18:44:16.967Z,3.00
2023-07-04T18:46:45.466Z,2.45
2023-07-04T18:49:15.439Z,3.00
2023-07-04T18:51:43.257Z,3.40
2023-07-04T18:54:16.052Z,3.00
2023-07-04T18:56:44.916Z,3.30
2023-07-04T18:59:14.895Z,3.10
2023-07-04T19:01:45.825Z,3.00
2023-07-04T19:04:12.996Z,2.80
2023-07-04T19:06:43.346Z,3.20
2023-07-04T19:09:11.298Z,2.72
2023-07-04T19:11:41.091Z,2.88
2023-07-04T19:14:19.845Z,2.50
2023-07-04T19:16:51.452Z,3.22
2023-07-04T19:19:30.868Z,3.00
2023-07-04T19:22:01.271Z,3.08
2023-07-04T19:24:30.029Z,3.20
2023-07-04T19:26:57.388Z,3.88
2023-07-04T19:29:25.395Z,4.32
2023-07-04T19:31:53.923Z,4.40
2023-07-04T19:34:24.671Z,4.50
2023-07-04T19:36:54.799Z,4.75
2023-07-04T19:39:25.408Z,4.80
2023-07-04T19:41:52.377Z,4.63
2023-07-04T19:44:19.279Z,5.05
2023-07-04T19:46:46.279Z,4.97
2023-07-04T19:49:13.468Z,5.25
2023-07-04T19:51:40.495Z,4.65
2023-07-04T19:54:09.004Z,4.78
2023-07-04T19:56:36.061Z,4.78
2023-07-04T19:59:04.148Z,4.88
2023-07-04T20:01:33.778Z,4.97
2023-07-04T20:04:01.761Z,5.05
2023-07-04T20:06:32.930Z,4.70
2023-07-04T20:09:00.014Z,4.78
2023-07-04T20:11:27.210Z,4.90
2023-07-04T20:13:54.170Z,5.40
2023-07-04T20:16:30.741Z,4.88
2023-07-04T20:18:58.569Z,4.80
2023-07-04T20:21:29.381Z,5.10
2023-07-04T20:23:56.794Z,5.05
2023-07-04T20:26:24.038Z,5.75
2023-07-04T20:28:50.910Z,5.00
2023-07-04T20:31:17.952Z,5.45
2023-07-04T20:33:45.088Z,5.90
2023-07-04T20:36:12.528Z,5.80
2023-07-04T20:38:41.006Z,6.28
2023-07-04T20:41:10.201Z,6.05
2023-07-04T20:43:37.382Z,6.30
2023-07-04T20:46:06.873Z,5.75
2023-07-04T20:48:33.940Z,5.47
2023-07-04T20:51:05.868Z,5.00
2023-07-04T20:53:33.018Z,4.75
2023-07-04T20:55:59.983Z,5.23
2023-07-04T20:58:27.855Z,5.53
2023-07-04T21:00:55.307Z,5.53
2023-07-04T21:03:24.556Z,5.23
2023-07-04T21:05:54.102Z,5.20
2023-07-04T21:08:22.496Z,5.40
2023-07-04T21:10:50.470Z,5.50
2023-07-04T21:13:20.250Z,5.50
2023-07-04T21:15:49.119Z,5.78
2023-07-04T21:18:16.454Z,5.53
2023-07-04T21:20:43.365Z,6.35
2023-07-04T21:23:10.328Z,6.40
2023-07-04T21:25:39.059Z,6.57
2023-07-04T21:28:05.985Z,6.63
2023-07-04T21:30:32.830Z,6.80
2023-07-04T21:33:00.125Z,7.40
2023-07-04T21:35:27.064Z,6.60
2023-07-04T21:37:54.034Z,7.32
2023-07-04T21:40:21.076Z,8.00
2023-07-04T21:42:47.949Z,7.45
2023-07-04T21:45:14.854Z,8.20
2023-07-04T21:47:41.783Z,7.68
2023-07-04T21:50:10.231Z,8.18
2023-07-04T21:52:38.002Z,7.43
2023-07-04T21:55:05.841Z,8.25
2023-07-04T21:57:32.710Z,7.15
2023-07-04T21:59:59.675Z,7.88
2023-07-04T22:02:28.027Z,8.70
2023-07-04T22:04:56.359Z,9.02
2023-07-04T22:07:23.960Z,8.10
2023-07-04T22:09:54.361Z,6.65
2023-07-04T22:12:21.371Z,7.80
2023-07-04T22:14:48.421Z,7.70
2023-07-04T22:17:15.367Z,6.45
2023-07-04T22:19:42.361Z,7.87
2023-07-04T22:22:09.979Z,7.55
2023-07-04T22:24:37.078Z,6.70
2023-07-04T22:27:04.185Z,7.30
2023-07-04T22:29:31.596Z,7.57
2023-07-04T22:31:58.561Z,7.40
2023-07-04T22:34:25.424Z,8.02
2023-07-04T22:36:52.323Z,7.45
2023-07-04T22:39:19.338Z,8.15
2023-07-04T22:41:46.156Z,8.05
2023-07-04T22:44:13.271Z,7.95
2023-07-04T22:46:40.224Z,7.30
2023-07-04T22:49:07.203Z,7.22
2023-07-04T22:51:34.080Z,7.00
2023-07-04T22:54:01.557Z,6.70
2023-07-04T22:56:28.389Z,6.18
2023-07-04T22:58:55.470Z,6.60
2023-07-04T23:01:25.740Z,5.43
2023-07-04T23:03:53.304Z,6.30
2023-07-04T23:06:20.707Z,5.72
2023-07-04T23:08:48.308Z,6.18
2023-07-04T23:11:16.037Z,6.15
2023-07-04T23:13:43.035Z,5.50
2023-07-04T23:16:16.831Z,5.63
2023-07-04T23:18:48.754Z,6.37
2023-07-04T23:21:17.156Z,6.53
2023-07-04T23:23:46.005Z,6.00
2023-07-04T23:26:18.484Z,6.32
2023-07-04T23:28:45.568Z,6.65
2023-07-04T23:31:13.918Z,6.78
2023-07-04T23:33:42.922Z,6.40
2023-07-04T23:36:10.882Z,6.10
2023-07-04T23:38:37.817Z,6.35
2023-07-04T23:41:04.768Z,6.60
2023-07-04T23:43:31.827Z,6.75
2023-07-04T23:45:59.185Z,7.70
2023-07-04T23:48:26.347Z,7.38
2023-07-04T23:50:53.364Z,7.55
2023-07-04T23:53:20.516Z,8.00
2023-07-04T23:55:47.468Z,8.55
2023-07-04T23:58:14.773Z,8.80
